createdAt,value
2019-03-29T00:01:06.622Z,962.84
2019-03-29T00:03:32.931Z,962.91
2019-03-29T00:05:59.233Z,962.91
2019-03-29T00:08:25.541Z,962.81
2019-03-29T00:10:51.875Z,962.91
2019-03-29T00:13:18.202Z,962.90
2019-03-29T00:15:44.538Z,962.99
2019-03-29T00:18:10.837Z,962.99
2019-03-29T00:20:37.146Z,963.07
2019-03-29T00:23:03.446Z,963.06
2019-03-29T00:25:29.761Z,963.02
2019-03-29T00:27:56.065Z,963.16
2019-03-29T00:30:22.382Z,963.08
2019-03-29T00:32:48.683Z,963.04
2019-03-29T00:35:14.987Z,963.05
2019-03-29T00:37:52.719Z,963.06
2019-03-29T00:40:07.613Z,963.06
2019-03-29T00:42:33.970Z,963.11
2019-03-29T00:45:00.404Z,963.06
2019-03-29T00:47:26.578Z,963.06
2019-03-29T00:49:52.887Z,963.05
2019-03-29T00:52:19.183Z,963.00
2019-03-29T00:54:45.483Z,963.03
2019-03-29T00:57:11.785Z,963.01
2019-03-29T00:59:38.090Z,962.95
2019-03-29T01:02:04.418Z,962.99
2019-03-29T01:04:30.719Z,962.95
2019-03-29T01:06:57.022Z,962.95
2019-03-29T01:09:23.327Z,962.97
2019-03-29T01:11:49.626Z,962.88
2019-03-29T01:14:16.277Z,962.78
2019-03-29T01:16:42.233Z,962.87
2019-03-29T01:19:08.543Z,962.75
2019-03-29T01:21:34.849Z,962.77
2019-03-29T01:24:01.157Z,962.73
2019-03-29T01:26:27.476Z,962.78
2019-03-29T01:28:53.801Z,962.79
2019-03-29T01:31:20.108Z,962.79
2019-03-29T01:33:46.405Z,962.80
2019-03-29T01:36:12.712Z,962.80
2019-03-29T01:38:39.019Z,962.82
2019-03-29T01:41:05.327Z,962.86
2019-03-29T01:43:31.627Z,962.85
2019-03-29T01:45:57.931Z,962.84
2019-03-29T01:48:24.231Z,962.87
2019-03-29T01:50:50.546Z,962.79
2019-03-29T01:53:16.847Z,962.86
2019-03-29T01:55:43.151Z,962.77
2019-03-29T01:58:09.466Z,962.84
2019-03-29T02:00:36.265Z,962.86
2019-03-29T02:03:02.749Z,962.81
2019-03-29T02:05:29.050Z,962.83
2019-03-29T02:07:55.355Z,962.80
2019-03-29T02:10:22.757Z,962.76
2019-03-29T02:12:48.044Z,962.81
2019-03-29T02:15:14.345Z,962.84
2019-03-29T02:17:40.645Z,962.87
2019-03-29T02:20:06.950Z,962.91
2019-03-29T02:22:33.254Z,962.88
2019-03-29T02:24:59.563Z,962.92
2019-03-29T02:27:26.436Z,962.87
2019-03-29T02:29:52.172Z,962.88
2019-03-29T02:32:18.480Z,962.94
2019-03-29T02:34:44.781Z,962.90
2019-03-29T02:37:11.093Z,962.92
2019-03-29T02:39:37.401Z,962.93
2019-03-29T02:42:03.710Z,962.98
2019-03-29T02:44:30.012Z,963.00
2019-03-29T02:46:56.310Z,963.02
2019-03-29T02:49:22.614Z,963.02
2019-03-29T02:51:48.922Z,963.02
2019-03-29T02:54:15.218Z,963.00
2019-03-29T02:56:41.703Z,963.01
2019-03-29T02:59:08.013Z,963.02
2019-03-29T03:01:34.319Z,962.97
2019-03-29T03:04:00.620Z,963.02
2019-03-29T03:06:26.945Z,962.99
2019-03-29T03:08:53.249Z,963.04
2019-03-29T03:11:19.569Z,963.03
2019-03-29T03:13:45.855Z,963.07
2019-03-29T03:16:12.213Z,963.12
2019-03-29T03:18:38.516Z,963.08
2019-03-29T03:21:04.824Z,963.05
2019-03-29T03:23:31.133Z,963.02
2019-03-29T03:25:57.435Z,963.08
2019-03-29T03:28:23.836Z,963.13
2019-03-29T03:30:50.148Z,963.11
2019-03-29T03:33:16.548Z,963.08
2019-03-29T03:35:42.809Z,963.08
2019-03-29T03:38:09.110Z,963.06
2019-03-29T03:40:35.420Z,963.08
2019-03-29T03:43:01.726Z,963.06
2019-03-29T03:45:28.034Z,963.10
2019-03-29T03:47:54.337Z,963.17
2019-03-29T03:50:20.639Z,963.18
2019-03-29T03:52:46.969Z,963.19
2019-03-29T03:55:13.305Z,963.15
2019-03-29T03:57:39.594Z,963.21
2019-03-29T04:00:05.965Z,963.19
2019-03-29T04:02:32.266Z,963.18
2019-03-29T04:04:58.576Z,963.25
2019-03-29T04:07:24.888Z,963.26
2019-03-29T04:09:51.202Z,963.32
2019-03-29T04:12:17.512Z,963.28
2019-03-29T04:14:43.831Z,963.30
2019-03-29T04:17:10.136Z,963.21
2019-03-29T04:19:36.469Z,963.26
2019-03-29T04:22:02.788Z,963.31
2019-03-29T04:24:29.097Z,963.37
2019-03-29T04:26:55.448Z,963.38
2019-03-29T04:29:21.753Z,963.36
2019-03-29T04:31:48.054Z,963.30
2019-03-29T04:34:14.365Z,963.31
2019-03-29T04:36:40.931Z,963.32
2019-03-29T04:39:07.234Z,963.26
2019-03-29T04:41:33.536Z,963.32
2019-03-29T04:43:59.839Z,963.37
2019-03-29T04:46:26.158Z,963.35
2019-03-29T04:48:52.452Z,963.43
2019-03-29T04:51:18.759Z,963.42
2019-03-29T04:53:45.057Z,963.35
2019-03-29T04:56:11.370Z,963.42
2019-03-29T04:58:37.676Z,963.42
2019-03-29T05:01:03.993Z,963.46
2019-03-29T05:03:30.299Z,963.50
2019-03-29T05:05:56.608Z,963.46
2019-03-29T05:08:22.907Z,963.50
2019-03-29T05:10:49.212Z,963.50
2019-03-29T05:13:15.521Z,963.50
2019-03-29T05:15:41.835Z,963.55
2019-03-29T05:18:08.152Z,963.51
2019-03-29T05:20:34.491Z,963.52
2019-03-29T05:23:00.801Z,963.46
2019-03-29T05:25:27.104Z,963.56
2019-03-29T05:27:53.440Z,963.53
2019-03-29T05:30:19.743Z,963.48
2019-03-29T05:32:46.055Z,963.51
2019-03-29T05:35:12.356Z,963.46
2019-03-29T05:37:38.660Z,963.54
2019-03-29T05:40:04.971Z,963.52
2019-03-29T05:42:31.275Z,963.52
2019-03-29T05:44:57.590Z,963.48
2019-03-29T05:47:23.914Z,963.47
2019-03-29T05:49:50.238Z,963.51
2019-03-29T05:52:16.544Z,963.49
2019-03-29T05:54:42.857Z,963.52
2019-03-29T05:57:10.260Z,963.57
2019-03-29T05:59:36.566Z,963.62
2019-03-29T06:02:02.879Z,963.60
2019-03-29T06:04:29.186Z,963.67
2019-03-29T06:06:55.494Z,963.67
2019-03-29T06:09:21.804Z,963.68
2019-03-29T06:11:48.155Z,963.72
2019-03-29T06:14:14.481Z,963.73
2019-03-29T06:16:40.836Z,963.70
2019-03-29T06:19:07.175Z,963.67
2019-03-29T06:21:33.479Z,963.74
2019-03-29T06:23:59.826Z,963.73
2019-03-29T06:26:26.090Z,963.73
2019-03-29T06:28:52.399Z,963.66
2019-03-29T06:31:18.707Z,963.64
2019-03-29T06:33:45.047Z,963.69
2019-03-29T06:36:11.379Z,963.65
2019-03-29T06:38:37.736Z,963.64
2019-03-29T06:41:04.040Z,963.62
2019-03-29T06:43:30.345Z,963.56
2019-03-29T06:45:56.651Z,963.50
2019-03-29T06:48:22.959Z,963.53
2019-03-29T06:50:49.418Z,963.49
2019-03-29T06:53:15.593Z,963.48
2019-03-29T06:55:41.911Z,963.46
2019-03-29T06:58:08.240Z,963.46
2019-03-29T07:00:34.522Z,963.41
2019-03-29T07:03:00.859Z,963.37
2019-03-29T07:05:27.219Z,963.42
2019-03-29T07:07:53.528Z,963.40
2019-03-29T07:10:19.826Z,963.40
2019-03-29T07:12:46.148Z,963.39
2019-03-29T07:15:12.452Z,963.36
2019-03-29T07:17:38.775Z,963.36
2019-03-29T07:20:05.067Z,963.35
2019-03-29T07:22:34.509Z,963.35
2019-03-29T07:24:57.683Z,963.28
2019-03-29T07:27:24.009Z,963.23
2019-03-29T07:29:50.313Z,963.15
2019-03-29T07:32:16.619Z,963.21
2019-03-29T07:34:42.949Z,963.24
2019-03-29T07:37:09.257Z,963.30
2019-03-29T07:39:35.568Z,963.22
2019-03-29T07:42:01.875Z,963.18
2019-03-29T07:44:28.188Z,963.16
2019-03-29T07:46:54.496Z,963.19
2019-03-29T07:49:20.800Z,963.11
2019-03-29T07:51:47.115Z,963.12
2019-03-29T07:54:13.417Z,962.98
2019-03-29T07:56:39.728Z,963.05
2019-03-29T07:59:06.062Z,962.99
2019-03-29T08:01:32.686Z,962.97
2019-03-29T08:03:58.719Z,962.91
2019-03-29T08:06:25.030Z,962.91
2019-03-29T08:08:51.379Z,962.85
2019-03-29T08:11:25.994Z,962.80
2019-03-29T08:13:44.025Z,962.84
2019-03-29T08:16:10.337Z,962.84
2019-03-29T08:18:36.648Z,962.76
2019-03-29T08:21:02.963Z,962.78
2019-03-29T08:23:29.268Z,962.83
2019-03-29T08:25:55.597Z,962.81
2019-03-29T08:28:21.901Z,962.84
2019-03-29T08:30:48.213Z,962.69
2019-03-29T08:33:14.523Z,962.78
2019-03-29T08:35:40.869Z,962.81
2019-03-29T08:38:07.191Z,962.76
2019-03-29T08:40:33.521Z,962.71
2019-03-29T08:42:59.833Z,962.67
2019-03-29T08:45:26.151Z,962.71
2019-03-29T08:47:52.455Z,962.75
2019-03-29T08:50:18.806Z,962.67
2019-03-29T08:52:45.086Z,962.58
2019-03-29T08:55:11.394Z,962.53
2019-03-29T08:57:37.717Z,962.51
2019-03-29T09:00:04.026Z,962.50
2019-03-29T09:02:30.373Z,962.48
2019-03-29T09:04:56.662Z,962.52
2019-03-29T09:07:22.968Z,962.46
2019-03-29T09:09:49.281Z,962.41
2019-03-29T09:12:15.589Z,962.41
2019-03-29T09:14:41.913Z,962.46
2019-03-29T09:17:08.221Z,962.31
2019-03-29T09:19:34.637Z,962.23
2019-03-29T09:22:00.949Z,962.17
2019-03-29T09:24:27.332Z,962.13
2019-03-29T09:26:53.689Z,962.05
2019-03-29T09:29:19.944Z,962.01
2019-03-29T09:31:46.254Z,961.95
2019-03-29T09:34:12.560Z,961.97
2019-03-29T09:36:38.881Z,961.98
2019-03-29T09:39:05.189Z,961.90
2019-03-29T09:41:31.504Z,961.88
2019-03-29T09:43:57.810Z,961.87
2019-03-29T09:46:24.130Z,961.89
2019-03-29T09:48:50.432Z,961.70
2019-03-29T09:51:16.746Z,961.65
2019-03-29T09:53:43.069Z,961.68
2019-03-29T09:56:09.371Z,961.71
2019-03-29T09:58:35.791Z,961.69
2019-03-29T10:01:02.091Z,961.70
2019-03-29T10:03:28.408Z,961.70
2019-03-29T10:05:54.723Z,961.67
2019-03-29T10:08:21.033Z,961.63
2019-03-29T10:10:47.346Z,961.71
2019-03-29T10:13:13.694Z,961.72
2019-03-29T10:15:41.037Z,961.64
2019-03-29T10:18:07.389Z,961.60
2019-03-29T10:20:33.731Z,961.56
2019-03-29T10:23:01.048Z,961.63
2019-03-29T10:25:27.358Z,961.49
2019-03-29T10:27:53.668Z,961.61
2019-03-29T10:30:20.008Z,961.44
2019-03-29T10:32:46.324Z,961.41
2019-03-29T10:35:12.893Z,961.42
2019-03-29T10:37:39.155Z,961.40
2019-03-29T10:40:05.464Z,961.48
2019-03-29T10:42:31.845Z,961.39
2019-03-29T10:44:58.667Z,961.40
2019-03-29T10:47:40.930Z,961.31
2019-03-29T10:49:51.285Z,961.34
2019-03-29T10:52:17.599Z,961.28
2019-03-29T10:54:43.907Z,961.25
2019-03-29T10:57:10.229Z,961.27
2019-03-29T10:59:36.543Z,961.29
2019-03-29T11:02:02.855Z,961.24
2019-03-29T11:04:31.917Z,961.35
2019-03-29T11:06:55.471Z,961.21
2019-03-29T11:09:21.788Z,961.36
2019-03-29T11:11:48.096Z,961.32
2019-03-29T11:14:14.405Z,961.28
2019-03-29T11:16:40.707Z,961.23
2019-03-29T11:19:07.029Z,961.30
2019-03-29T11:21:33.332Z,961.29
2019-03-29T11:23:59.644Z,961.28
2019-03-29T11:26:25.953Z,961.31
2019-03-29T11:28:52.346Z,961.16
2019-03-29T11:31:18.657Z,961.18
2019-03-29T11:33:44.978Z,961.11
2019-03-29T11:36:11.288Z,961.15
2019-03-29T11:38:37.593Z,961.00
2019-03-29T11:41:03.909Z,961.05
2019-03-29T11:43:30.246Z,961.15
2019-03-29T11:45:56.611Z,961.03
2019-03-29T11:48:22.920Z,960.96
2019-03-29T11:50:49.225Z,960.93
2019-03-29T11:53:15.541Z,960.95
2019-03-29T11:55:41.849Z,961.00
2019-03-29T11:58:08.187Z,960.93
2019-03-29T12:00:34.497Z,961.06
2019-03-29T12:03:00.812Z,960.93
2019-03-29T12:05:27.121Z,960.95
2019-03-29T12:07:53.456Z,960.80
2019-03-29T12:10:19.761Z,960.83
2019-03-29T12:12:46.067Z,960.85
2019-03-29T12:15:12.381Z,960.89
2019-03-29T12:17:38.682Z,960.80
2019-03-29T12:20:04.998Z,960.89
2019-03-29T12:22:31.426Z,960.77
2019-03-29T12:24:57.812Z,960.70
2019-03-29T12:27:24.035Z,960.64
2019-03-29T12:29:50.367Z,960.71
2019-03-29T12:32:16.673Z,960.74
2019-03-29T12:34:42.984Z,960.63
2019-03-29T12:37:09.305Z,960.63
2019-03-29T12:39:35.617Z,960.66
2019-03-29T12:42:01.928Z,960.57
2019-03-29T12:44:28.231Z,960.48
2019-03-29T12:46:54.536Z,960.58
2019-03-29T12:49:20.845Z,960.63
2019-03-29T12:51:47.183Z,960.59
2019-03-29T12:54:13.477Z,960.48
2019-03-29T12:56:39.808Z,960.51
2019-03-29T12:59:06.111Z,960.59
2019-03-29T13:01:39.352Z,960.53
2019-03-29T13:03:58.738Z,960.50
2019-03-29T13:06:25.045Z,960.55
2019-03-29T13:08:51.354Z,960.57
2019-03-29T13:11:17.734Z,960.49
2019-03-29T13:13:44.065Z,960.45
2019-03-29T13:16:10.377Z,960.48
2019-03-29T13:18:36.697Z,960.37
2019-03-29T13:21:03.005Z,960.46
2019-03-29T13:23:29.369Z,960.43
2019-03-29T13:25:55.647Z,960.42
2019-03-29T13:28:21.952Z,960.41
2019-03-29T13:30:48.261Z,960.34
2019-03-29T13:33:14.581Z,960.37
2019-03-29T13:35:41.195Z,960.27
2019-03-29T13:38:07.201Z,960.32
2019-03-29T13:40:33.515Z,960.25
2019-03-29T13:42:59.831Z,960.31
2019-03-29T13:45:27.891Z,960.29
2019-03-29T13:47:52.460Z,960.34
2019-03-29T13:50:18.779Z,960.29
2019-03-29T13:52:45.087Z,960.31
2019-03-29T13:55:11.392Z,960.26
2019-03-29T13:57:37.711Z,960.33
2019-03-29T14:00:04.020Z,960.28
2019-03-29T14:02:30.355Z,960.30
2019-03-29T14:04:56.631Z,960.36
2019-03-29T14:07:22.942Z,960.42
2019-03-29T14:09:49.273Z,960.31
2019-03-29T14:12:15.607Z,960.30
2019-03-29T14:14:41.927Z,960.38
2019-03-29T14:17:08.234Z,960.39
2019-03-29T14:19:34.546Z,960.39
2019-03-29T14:22:00.849Z,960.27
2019-03-29T14:24:27.167Z,960.29
2019-03-29T14:26:53.471Z,960.15
2019-03-29T14:29:19.797Z,960.19
2019-03-29T14:31:46.099Z,960.27
2019-03-29T14:34:12.409Z,960.12
2019-03-29T14:36:38.707Z,960.11
2019-03-29T14:39:05.038Z,960.13
2019-03-29T14:41:31.341Z,960.09
2019-03-29T14:43:57.649Z,960.11
2019-03-29T14:46:24.027Z,960.01
2019-03-29T14:48:50.361Z,960.07
2019-03-29T14:51:16.715Z,959.90
2019-03-29T14:53:42.995Z,960.06
2019-03-29T14:56:09.306Z,960.08
2019-03-29T14:58:35.721Z,960.01
2019-03-29T15:01:02.041Z,960.10
2019-03-29T15:03:28.446Z,960.10
2019-03-29T15:05:54.786Z,960.05
2019-03-29T15:08:21.102Z,960.07
2019-03-29T15:10:47.404Z,960.09
2019-03-29T15:13:13.718Z,960.11
2019-03-29T15:15:40.066Z,960.08
2019-03-29T15:18:06.391Z,960.04
2019-03-29T15:20:32.705Z,960.04
2019-03-29T15:22:59.033Z,960.06
2019-03-29T15:25:25.341Z,960.03
2019-03-29T15:27:51.672Z,960.06
2019-03-29T15:30:17.972Z,960.01
2019-03-29T15:32:44.295Z,959.97
2019-03-29T15:35:10.618Z,960.02
2019-03-29T15:37:36.916Z,960.01
2019-03-29T15:40:03.224Z,960.03
2019-03-29T15:42:29.532Z,960.08
2019-03-29T15:44:55.844Z,960.01
2019-03-29T15:47:22.149Z,960.05
2019-03-29T15:49:55.848Z,960.12
2019-03-29T15:52:14.774Z,960.09
2019-03-29T15:54:41.114Z,960.06
2019-03-29T15:57:07.409Z,960.21
2019-03-29T15:59:33.721Z,960.13
2019-03-29T16:02:00.108Z,960.19
2019-03-29T16:04:26.418Z,960.29
2019-03-29T16:06:52.729Z,960.28
2019-03-29T16:09:19.033Z,960.35
2019-03-29T16:11:45.420Z,960.41
2019-03-29T16:14:11.657Z,960.48
2019-03-29T16:16:37.965Z,960.42
2019-03-29T16:19:04.275Z,960.42
2019-03-29T16:21:30.611Z,960.43
2019-03-29T16:23:57.216Z,960.44
2019-03-29T16:26:23.521Z,960.52
2019-03-29T16:28:49.871Z,960.48
2019-03-29T16:31:16.393Z,960.59
2019-03-29T16:33:42.708Z,960.56
2019-03-29T16:36:09.017Z,960.65
2019-03-29T16:38:35.323Z,960.62
2019-03-29T16:41:01.645Z,960.72
2019-03-29T16:43:27.957Z,960.61
2019-03-29T16:45:54.265Z,960.66
2019-03-29T16:48:20.573Z,960.65
2019-03-29T16:50:46.885Z,960.62
2019-03-29T16:53:13.192Z,960.67
2019-03-29T16:55:39.874Z,960.68
2019-03-29T16:58:06.180Z,960.64
2019-03-29T17:00:32.513Z,960.71
2019-03-29T17:02:58.820Z,960.70
2019-03-29T17:05:25.146Z,960.74
2019-03-29T17:07:54.055Z,960.72
2019-03-29T17:10:20.488Z,960.87
2019-03-29T17:12:46.791Z,960.78
2019-03-29T17:15:13.181Z,960.83
2019-03-29T17:17:39.495Z,960.95
2019-03-29T17:20:05.967Z,960.92
2019-03-29T17:22:32.282Z,960.91
2019-03-29T17:24:58.612Z,960.90
2019-03-29T17:27:24.926Z,960.94
2019-03-29T17:29:51.228Z,960.85
2019-03-29T17:32:17.701Z,960.85
2019-03-29T17:34:44.086Z,960.85
2019-03-29T17:37:10.414Z,960.87
2019-03-29T17:39:36.716Z,960.85
2019-03-29T17:42:03.024Z,960.83
2019-03-29T17:44:33.737Z,960.80
2019-03-29T17:46:58.862Z,960.83
2019-03-29T17:49:25.173Z,960.86
2019-03-29T17:51:51.501Z,960.92
2019-03-29T17:54:17.825Z,960.94
2019-03-29T17:56:44.234Z,961.00
2019-03-29T17:59:10.542Z,961.02
2019-03-29T18:01:39.306Z,961.05
2019-03-29T18:04:03.285Z,961.09
2019-03-29T18:06:29.582Z,961.11
2019-03-29T18:08:56.023Z,961.07
2019-03-29T18:11:22.368Z,961.04
2019-03-29T18:13:48.691Z,961.11
2019-03-29T18:16:15.004Z,961.15
2019-03-29T18:18:41.315Z,961.22
2019-03-29T18:21:07.626Z,961.19
2019-03-29T18:23:33.941Z,961.24
2019-03-29T18:26:00.276Z,961.22
2019-03-29T18:28:26.696Z,961.26
2019-03-29T18:30:52.998Z,961.23
2019-03-29T18:33:19.307Z,961.24
2019-03-29T18:35:45.616Z,961.33
2019-03-29T18:38:12.117Z,961.27
2019-03-29T18:40:38.633Z,961.29
2019-03-29T18:43:04.963Z,961.31
2019-03-29T18:45:31.272Z,961.28
2019-03-29T18:47:57.576Z,961.32
2019-03-29T18:50:23.980Z,961.34
2019-03-29T18:52:50.330Z,961.39
2019-03-29T18:55:16.634Z,961.33
2019-03-29T18:57:42.944Z,961.40
2019-03-29T19:00:09.259Z,961.31
2019-03-29T19:02:35.561Z,961.36
2019-03-29T19:05:01.903Z,961.33
2019-03-29T19:07:28.206Z,961.41
2019-03-29T19:09:54.539Z,961.38
2019-03-29T19:12:20.841Z,961.44
2019-03-29T19:14:47.148Z,961.40
2019-03-29T19:17:13.474Z,961.39
2019-03-29T19:19:39.784Z,961.42
2019-03-29T19:22:06.092Z,961.44
2019-03-29T19:24:32.400Z,961.38
2019-03-29T19:26:58.783Z,961.42
2019-03-29T19:29:25.089Z,961.35
2019-03-29T19:31:51.396Z,961.28
2019-03-29T19:34:17.699Z,961.37
2019-03-29T19:36:44.044Z,961.33
2019-03-29T19:39:10.354Z,961.33
2019-03-29T19:41:36.659Z,961.34
2019-03-29T19:44:03.010Z,961.37
2019-03-29T19:46:29.640Z,961.38
2019-03-29T19:48:58.679Z,961.42
2019-03-29T19:51:25.016Z,961.41
2019-03-29T19:53:51.322Z,961.43
2019-03-29T19:56:17.628Z,961.39
2019-03-29T19:58:43.953Z,961.37
2019-03-29T20:01:11.324Z,961.43
2019-03-29T20:03:38.031Z,961.28
2019-03-29T20:06:04.330Z,961.34
2019-03-29T20:08:30.628Z,961.34
2019-03-29T20:10:57.202Z,961.33
2019-03-29T20:13:23.506Z,961.29
2019-03-29T20:15:52.199Z,961.28
2019-03-29T20:18:18.497Z,961.29
2019-03-29T20:20:44.804Z,961.28
2019-03-29T20:23:11.125Z,961.34
2019-03-29T20:25:37.449Z,961.30
2019-03-29T20:28:03.781Z,961.29
2019-03-29T20:30:30.109Z,961.27
2019-03-29T20:32:56.447Z,961.24
2019-03-29T20:35:22.773Z,961.24
2019-03-29T20:37:49.131Z,961.29
2019-03-29T20:40:15.486Z,961.19
2019-03-29T20:42:42.993Z,961.22
2019-03-29T20:45:08.126Z,961.15
2019-03-29T20:47:41.847Z,961.20
2019-03-29T20:50:01.062Z,961.25
2019-03-29T20:52:27.382Z,961.23
2019-03-29T20:54:53.740Z,961.29
2019-03-29T20:57:20.061Z,961.31
2019-03-29T20:59:46.388Z,961.28
2019-03-29T21:02:12.712Z,961.37
2019-03-29T21:04:39.058Z,961.40
2019-03-29T21:07:05.371Z,961.46
2019-03-29T21:09:31.692Z,961.45
2019-03-29T21:11:58.046Z,961.41
2019-03-29T21:14:24.366Z,961.34
2019-03-29T21:16:50.684Z,961.37
2019-03-29T21:19:17.094Z,961.32
2019-03-29T21:21:45.845Z,961.38
2019-03-29T21:24:12.169Z,961.35
2019-03-29T21:26:38.483Z,961.35
2019-03-29T21:29:04.859Z,961.37
2019-03-29T21:31:31.155Z,961.37
2019-03-29T21:33:57.475Z,961.38
2019-03-29T21:36:23.792Z,961.37
2019-03-29T21:38:50.103Z,961.43
2019-03-29T21:41:16.425Z,961.46
2019-03-29T21:43:42.755Z,961.43
2019-03-29T21:46:09.085Z,961.42
2019-03-29T21:48:35.408Z,961.43
2019-03-29T21:51:01.729Z,961.39
2019-03-29T21:53:28.073Z,961.41
2019-03-29T21:55:54.396Z,961.37
2019-03-29T21:58:20.730Z,961.36
2019-03-29T22:00:47.051Z,961.37
2019-03-29T22:03:13.382Z,961.41
2019-03-29T22:05:39.706Z,961.38
2019-03-29T22:08:06.038Z,961.35
2019-03-29T22:10:32.381Z,961.35
2019-03-29T22:12:58.702Z,961.37
2019-03-29T22:15:25.039Z,961.36
2019-03-29T22:17:53.540Z,961.39
2019-03-29T22:20:19.883Z,961.32
2019-03-29T22:22:46.216Z,961.36
2019-03-29T22:25:12.533Z,961.38
2019-03-29T22:27:38.854Z,961.45
2019-03-29T22:30:05.181Z,961.45
2019-03-29T22:32:31.522Z,961.50
2019-03-29T22:34:57.859Z,961.47
2019-03-29T22:37:24.209Z,961.54
2019-03-29T22:39:50.530Z,961.54
2019-03-29T22:42:16.852Z,961.53
2019-03-29T22:44:43.174Z,961.55
2019-03-29T22:47:09.487Z,961.47
2019-03-29T22:49:35.824Z,961.46
2019-03-29T22:52:02.151Z,961.48
2019-03-29T22:54:28.468Z,961.45
2019-03-29T22:56:54.809Z,961.48
2019-03-29T22:59:21.132Z,961.48
2019-03-29T23:01:47.455Z,961.47
2019-03-29T23:04:13.826Z,961.44
2019-03-29T23:06:40.151Z,961.37
2019-03-29T23:09:06.469Z,961.37
2019-03-29T23:11:32.798Z,961.43
2019-03-29T23:13:59.140Z,961.35
2019-03-29T23:16:25.466Z,961.32
2019-03-29T23:19:05.576Z,961.33
2019-03-29T23:21:18.161Z,961.26
2019-03-29T23:23:44.463Z,961.24
2019-03-29T23:26:10.788Z,961.21
2019-03-29T23:28:37.100Z,961.20
2019-03-29T23:31:05.579Z,961.18
2019-03-29T23:33:29.760Z,961.18
2019-03-29T23:35:56.063Z,961.07
2019-03-29T23:38:22.374Z,961.04
2019-03-29T23:40:48.683Z,961.02
2019-03-29T23:43:14.990Z,961.10
2019-03-29T23:45:41.294Z,961.08
2019-03-29T23:48:07.622Z,961.02
2019-03-29T23:50:33.922Z,961.04
2019-03-29T23:53:00.228Z,960.99
2019-03-29T23:55:26.539Z,961.01
2019-03-29T23:57:52.850Z,960.93
